createdAt,value
2018-12-31T00:01:21.520Z,69.96
2018-12-31T00:04:11.304Z,69.94
2018-12-31T00:07:02.270Z,70.02
2018-12-31T00:09:52.242Z,69.88
2018-12-31T00:12:42.570Z,70.03
2018-12-31T00:15:34.209Z,70.13
2018-12-31T00:18:24.376Z,70.31
2018-12-31T00:21:13.925Z,70.07
2018-12-31T00:24:03.820Z,70.06
2018-12-31T00:26:53.762Z,70.09
2018-12-31T00:29:43.465Z,70.14
2018-12-31T00:32:33.086Z,70.10
2018-12-31T00:35:23.298Z,70.01
2018-12-31T00:38:13.309Z,69.89
2018-12-31T00:41:03.505Z,69.84
2018-12-31T00:43:53.982Z,70.01
2018-12-31T00:46:44.110Z,69.99
2018-12-31T00:49:34.401Z,70.05
2018-12-31T00:52:24.433Z,70.15
2018-12-31T00:55:14.609Z,70.05
2018-12-31T00:58:05.195Z,70.08
2018-12-31T01:00:55.481Z,70.05
2018-12-31T01:03:45.241Z,69.97
2018-12-31T01:06:34.918Z,69.87
2018-12-31T01:09:24.781Z,69.93
2018-12-31T01:12:15.266Z,70.03
2018-12-31T01:15:05.400Z,70.10
2018-12-31T01:17:55.024Z,70.16
2018-12-31T01:20:44.959Z,70.04
2018-12-31T01:23:34.975Z,69.97
2018-12-31T01:26:25.244Z,70.09
2018-12-31T01:29:14.934Z,69.94
2018-12-31T01:32:04.699Z,69.80
2018-12-31T01:34:54.787Z,70.00
2018-12-31T01:37:45.265Z,69.99
2018-12-31T01:40:34.765Z,70.04
2018-12-31T01:43:24.427Z,69.96
2018-12-31T01:46:14.557Z,70.06
2018-12-31T01:49:04.710Z,70.22
2018-12-31T01:51:54.777Z,70.35
2018-12-31T01:54:45.034Z,70.31
2018-12-31T01:57:35.143Z,70.29
2018-12-31T02:00:25.779Z,70.45
2018-12-31T02:03:16.112Z,70.23
2018-12-31T02:06:06.521Z,70.30
2018-12-31T02:08:56.943Z,70.24
2018-12-31T02:11:46.459Z,70.00
2018-12-31T02:14:36.473Z,70.07
2018-12-31T02:17:26.450Z,70.09
2018-12-31T02:20:16.082Z,70.33
2018-12-31T02:23:06.457Z,70.23
2018-12-31T02:25:56.611Z,70.10
2018-12-31T02:28:46.611Z,70.03
2018-12-31T02:31:36.700Z,70.03
2018-12-31T02:34:26.370Z,69.91
2018-12-31T02:37:16.335Z,70.07
2018-12-31T02:40:07.040Z,70.02
2018-12-31T02:42:57.053Z,70.17
2018-12-31T02:45:47.257Z,70.14
2018-12-31T02:48:37.315Z,70.07
2018-12-31T02:51:26.978Z,70.12
2018-12-31T02:54:16.595Z,69.82
2018-12-31T02:57:06.453Z,70.05
2018-12-31T02:59:56.363Z,70.12
2018-12-31T03:02:46.230Z,70.30
2018-12-31T03:05:36.113Z,70.38
2018-12-31T03:08:26.261Z,70.36
2018-12-31T03:11:16.661Z,70.15
2018-12-31T03:14:07.125Z,70.11
2018-12-31T03:16:57.449Z,70.25
2018-12-31T03:19:48.864Z,70.16
2018-12-31T03:22:38.863Z,70.28
2018-12-31T03:25:28.503Z,70.32
2018-12-31T03:28:18.648Z,70.56
2018-12-31T03:31:08.773Z,70.32
2018-12-31T03:33:58.768Z,70.57
2018-12-31T03:36:48.562Z,70.34
2018-12-31T03:39:38.580Z,70.55
2018-12-31T03:42:28.889Z,70.76
2018-12-31T03:45:18.677Z,70.95
2018-12-31T03:48:08.477Z,70.92
2018-12-31T03:50:58.404Z,70.78
2018-12-31T03:53:48.193Z,70.63
2018-12-31T03:56:38.359Z,70.56
2018-12-31T03:59:28.525Z,70.48
2018-12-31T04:02:18.373Z,70.40
2018-12-31T04:05:07.906Z,70.24
2018-12-31T04:07:57.973Z,70.37
2018-12-31T04:10:47.389Z,70.45
2018-12-31T04:13:37.916Z,70.58
2018-12-31T04:16:28.103Z,70.44
2018-12-31T04:19:18.275Z,70.49
2018-12-31T04:22:08.369Z,70.49
2018-12-31T04:24:58.672Z,70.84
2018-12-31T04:27:49.222Z,70.92
2018-12-31T04:30:39.622Z,71.22
2018-12-31T04:33:30.064Z,71.42
2018-12-31T04:36:20.247Z,71.45
2018-12-31T04:39:09.714Z,71.50
2018-12-31T04:41:59.915Z,71.29
2018-12-31T04:44:50.148Z,71.32
2018-12-31T04:47:40.744Z,71.21
2018-12-31T04:50:30.656Z,71.43
2018-12-31T04:53:20.630Z,71.45
2018-12-31T04:56:10.509Z,71.34
2018-12-31T04:59:00.569Z,71.37
2018-12-31T05:01:50.290Z,71.52
2018-12-31T05:04:39.668Z,71.62
2018-12-31T05:07:29.336Z,71.68
2018-12-31T05:10:19.286Z,71.54
2018-12-31T05:13:09.283Z,71.45
2018-12-31T05:15:59.528Z,71.47
2018-12-31T05:18:49.386Z,71.54
2018-12-31T05:21:39.442Z,71.61
2018-12-31T05:24:29.157Z,71.59
2018-12-31T05:27:19.277Z,71.79
2018-12-31T05:30:09.039Z,71.63
2018-12-31T05:32:58.926Z,71.74
2018-12-31T05:35:48.371Z,71.86
2018-12-31T05:38:38.617Z,71.58
2018-12-31T05:41:29.259Z,71.65
2018-12-31T05:44:19.357Z,72.10
2018-12-31T05:47:09.153Z,71.93
2018-12-31T05:49:58.750Z,72.12
2018-12-31T05:52:48.693Z,71.75
2018-12-31T05:55:38.791Z,71.63
2018-12-31T05:58:28.755Z,71.64
2018-12-31T06:01:19.039Z,71.68
2018-12-31T06:04:09.065Z,71.75
2018-12-31T06:06:58.627Z,71.66
2018-12-31T06:09:48.613Z,71.57
2018-12-31T06:12:38.663Z,71.70
2018-12-31T06:15:28.892Z,71.53
2018-12-31T06:18:18.912Z,71.62
2018-12-31T06:21:09.135Z,71.85
2018-12-31T06:23:59.281Z,71.77
2018-12-31T06:26:49.175Z,71.48
2018-12-31T06:29:39.466Z,71.38
2018-12-31T06:32:29.917Z,71.46
2018-12-31T06:35:20.037Z,71.64
2018-12-31T06:38:09.784Z,71.48
2018-12-31T06:40:59.625Z,71.41
2018-12-31T06:43:49.789Z,71.43
2018-12-31T06:46:39.645Z,71.29
2018-12-31T06:49:29.524Z,71.43
2018-12-31T06:52:19.486Z,71.48
2018-12-31T06:55:09.210Z,71.49
2018-12-31T06:57:59.588Z,71.66
2018-12-31T07:00:49.920Z,71.62
2018-12-31T07:03:40.157Z,71.58
2018-12-31T07:06:30.181Z,71.54
2018-12-31T07:09:20.118Z,71.56
2018-12-31T07:12:10.689Z,71.35
2018-12-31T07:15:00.560Z,71.52
2018-12-31T07:17:50.661Z,71.49
2018-12-31T07:20:40.832Z,71.45
2018-12-31T07:23:30.674Z,71.57
2018-12-31T07:26:20.775Z,71.71
2018-12-31T07:29:11.301Z,71.56
2018-12-31T07:32:01.549Z,71.85
2018-12-31T07:34:51.792Z,71.67
2018-12-31T07:37:42.080Z,71.67
2018-12-31T07:40:32.644Z,71.61
2018-12-31T07:43:22.968Z,71.79
2018-12-31T07:46:13.388Z,71.64
2018-12-31T07:49:02.953Z,71.62
2018-12-31T07:51:53.104Z,71.66
2018-12-31T07:54:43.287Z,71.81
2018-12-31T07:57:33.439Z,71.80
2018-12-31T08:00:23.633Z,71.70
2018-12-31T08:03:13.426Z,71.89
2018-12-31T08:06:03.842Z,72.10
2018-12-31T08:08:54.136Z,71.93
2018-12-31T08:11:44.078Z,72.03
2018-12-31T08:14:33.466Z,71.92
2018-12-31T08:17:23.279Z,71.86
2018-12-31T08:20:13.482Z,71.70
2018-12-31T08:23:03.467Z,71.38
2018-12-31T08:25:53.546Z,71.68
2018-12-31T08:28:43.670Z,71.65
2018-12-31T08:31:34.056Z,71.69
2018-12-31T08:34:24.060Z,71.66
2018-12-31T08:37:14.376Z,71.50
2018-12-31T08:40:04.370Z,71.69
2018-12-31T08:42:54.656Z,71.91
2018-12-31T08:45:44.767Z,72.13
2018-12-31T08:48:34.714Z,72.17
2018-12-31T08:51:24.614Z,72.06
2018-12-31T08:54:14.614Z,72.05
2018-12-31T08:57:04.908Z,72.42
2018-12-31T08:59:55.275Z,72.33
2018-12-31T09:02:45.505Z,72.08
2018-12-31T09:05:35.748Z,72.10
2018-12-31T09:08:25.158Z,72.19
2018-12-31T09:11:15.090Z,72.07
2018-12-31T09:14:04.887Z,72.17
2018-12-31T09:16:55.054Z,72.07
2018-12-31T09:19:45.453Z,72.08
2018-12-31T09:22:35.594Z,72.14
2018-12-31T09:25:25.790Z,72.19
2018-12-31T09:28:15.571Z,72.04
2018-12-31T09:31:05.518Z,72.01
2018-12-31T09:33:55.458Z,72.30
2018-12-31T09:36:45.254Z,72.43
2018-12-31T09:39:35.619Z,72.64
2018-12-31T09:42:25.614Z,72.75
2018-12-31T09:45:15.468Z,72.82
2018-12-31T09:48:05.613Z,72.68
2018-12-31T09:50:55.878Z,72.94
2018-12-31T09:53:45.811Z,73.06
2018-12-31T09:56:35.992Z,72.93
2018-12-31T09:59:26.352Z,72.81
2018-12-31T10:02:16.220Z,72.87
2018-12-31T10:05:06.549Z,72.61
2018-12-31T10:07:56.617Z,72.85
2018-12-31T10:10:47.581Z,73.07
2018-12-31T10:13:38.258Z,73.00
2018-12-31T10:16:28.406Z,72.96
2018-12-31T10:19:18.486Z,73.04
2018-12-31T10:22:08.262Z,73.27
2018-12-31T10:24:58.010Z,73.36
2018-12-31T10:27:48.122Z,73.53
2018-12-31T10:30:37.736Z,73.50
2018-12-31T10:33:27.249Z,73.40
2018-12-31T10:36:17.668Z,73.52
2018-12-31T10:39:08.004Z,73.55
2018-12-31T10:41:58.566Z,73.83
2018-12-31T10:44:48.597Z,74.00
2018-12-31T10:47:38.724Z,74.12
2018-12-31T10:50:28.321Z,74.19
2018-12-31T10:53:18.836Z,74.15
2018-12-31T10:56:09.103Z,74.23
2018-12-31T10:58:59.320Z,74.45
2018-12-31T11:01:48.970Z,74.48
2018-12-31T11:04:39.539Z,74.49
2018-12-31T11:07:29.268Z,74.58
2018-12-31T11:10:19.465Z,74.44
2018-12-31T11:13:09.118Z,74.43
2018-12-31T11:16:02.055Z,74.36
2018-12-31T11:18:51.967Z,74.30
2018-12-31T11:21:42.390Z,74.31
2018-12-31T11:24:32.579Z,74.36
2018-12-31T11:27:22.093Z,74.32
2018-12-31T11:30:12.168Z,74.39
2018-12-31T11:33:02.208Z,74.66
2018-12-31T11:35:52.015Z,74.81
2018-12-31T11:38:42.346Z,74.80
2018-12-31T11:41:32.402Z,74.80
2018-12-31T11:44:22.179Z,74.82
2018-12-31T11:47:12.497Z,74.77
2018-12-31T11:50:02.371Z,74.87
2018-12-31T11:52:52.439Z,74.86
2018-12-31T11:55:42.828Z,74.77
2018-12-31T11:58:33.361Z,74.84
2018-12-31T12:01:23.656Z,74.96
2018-12-31T12:04:13.903Z,75.04
2018-12-31T12:07:04.011Z,75.04
2018-12-31T12:09:54.037Z,75.02
2018-12-31T12:12:44.833Z,75.04
2018-12-31T12:15:34.659Z,74.95
2018-12-31T12:18:24.580Z,74.98
2018-12-31T12:21:16.015Z,75.12
2018-12-31T12:24:06.430Z,75.10
2018-12-31T12:26:57.084Z,74.97
2018-12-31T12:29:46.519Z,74.94
2018-12-31T12:32:36.927Z,74.90
2018-12-31T12:35:26.854Z,74.95
2018-12-31T12:38:16.647Z,74.86
2018-12-31T12:41:07.085Z,74.61
2018-12-31T12:43:57.420Z,74.46
2018-12-31T12:46:47.879Z,74.46
2018-12-31T12:49:37.874Z,74.46
2018-12-31T12:52:29.248Z,74.51
2018-12-31T12:55:19.512Z,74.45
2018-12-31T12:58:09.530Z,74.31
2018-12-31T13:00:59.745Z,74.36
2018-12-31T13:03:49.916Z,74.26
2018-12-31T13:06:40.223Z,74.24
2018-12-31T13:09:30.464Z,74.13
2018-12-31T13:12:20.897Z,74.09
2018-12-31T13:15:11.504Z,74.14
2018-12-31T13:18:01.540Z,74.11
2018-12-31T13:20:51.857Z,74.09
2018-12-31T13:23:42.134Z,73.89
2018-12-31T13:26:32.779Z,73.98
2018-12-31T13:29:23.493Z,74.01
2018-12-31T13:32:13.626Z,74.03
2018-12-31T13:35:04.189Z,74.20
2018-12-31T13:37:53.972Z,74.38
2018-12-31T13:40:44.584Z,74.41
2018-12-31T13:43:34.491Z,74.41
2018-12-31T13:46:24.579Z,74.46
2018-12-31T13:49:14.555Z,74.48
2018-12-31T13:52:04.646Z,74.52
2018-12-31T13:54:54.576Z,74.66
2018-12-31T13:57:44.656Z,74.61
2018-12-31T14:00:34.725Z,74.50
2018-12-31T14:03:24.990Z,74.63
2018-12-31T14:06:15.358Z,74.73
2018-12-31T14:09:07.170Z,74.81
2018-12-31T14:11:57.658Z,74.89
2018-12-31T14:14:47.977Z,74.86
2018-12-31T14:17:38.819Z,74.90
2018-12-31T14:20:28.956Z,74.96
2018-12-31T14:23:18.698Z,75.06
2018-12-31T14:26:08.443Z,75.00
2018-12-31T14:28:58.567Z,75.01
2018-12-31T14:31:48.860Z,75.06
2018-12-31T14:34:39.369Z,75.14
2018-12-31T14:37:29.341Z,75.22
2018-12-31T14:40:20.109Z,75.38
2018-12-31T14:43:10.117Z,75.46
2018-12-31T14:46:00.870Z,75.53
2018-12-31T14:48:51.534Z,75.55
2018-12-31T14:51:41.798Z,75.51
2018-12-31T14:54:31.886Z,75.57
2018-12-31T14:57:22.597Z,75.64
2018-12-31T15:00:13.811Z,75.71
2018-12-31T15:03:05.535Z,75.76
2018-12-31T15:05:55.790Z,75.75
2018-12-31T15:08:45.626Z,75.80
2018-12-31T15:11:35.912Z,75.82
2018-12-31T15:14:25.919Z,75.88
2018-12-31T15:17:16.318Z,75.91
2018-12-31T15:20:09.203Z,75.95
2018-12-31T15:22:59.882Z,75.92
2018-12-31T15:25:50.125Z,75.94
2018-12-31T15:28:39.830Z,75.93
2018-12-31T15:31:30.181Z,75.94
2018-12-31T15:34:20.633Z,75.90
2018-12-31T15:37:10.587Z,75.86
2018-12-31T15:40:00.325Z,75.79
2018-12-31T15:42:50.664Z,75.71
2018-12-31T15:45:40.942Z,75.58
2018-12-31T15:48:31.176Z,75.49
2018-12-31T15:51:21.336Z,75.37
2018-12-31T15:54:11.599Z,75.26
2018-12-31T15:57:01.994Z,75.24
2018-12-31T15:59:52.459Z,75.15
2018-12-31T16:02:42.603Z,74.99
2018-12-31T16:05:32.452Z,74.92
2018-12-31T16:08:22.638Z,74.91
2018-12-31T16:11:12.991Z,74.89
2018-12-31T16:14:03.373Z,74.86
2018-12-31T16:16:54.126Z,74.82
2018-12-31T16:19:44.622Z,74.80
2018-12-31T16:22:34.944Z,74.77
2018-12-31T16:25:24.869Z,74.65
2018-12-31T16:28:15.552Z,74.61
2018-12-31T16:31:06.109Z,74.60
2018-12-31T16:33:55.960Z,74.50
2018-12-31T16:36:46.765Z,74.52
2018-12-31T16:39:37.067Z,74.59
2018-12-31T16:42:27.589Z,74.57
2018-12-31T16:45:17.432Z,74.56
2018-12-31T16:48:08.667Z,74.55
2018-12-31T16:50:59.139Z,74.56
2018-12-31T16:53:48.985Z,74.56
2018-12-31T16:56:38.589Z,74.52
2018-12-31T16:59:28.705Z,74.46
2018-12-31T17:02:19.070Z,74.48
2018-12-31T17:05:09.293Z,74.44
2018-12-31T17:07:59.874Z,74.41
2018-12-31T17:10:50.288Z,74.40
2018-12-31T17:13:40.959Z,74.36
2018-12-31T17:16:31.232Z,74.31
2018-12-31T17:19:21.469Z,74.28
2018-12-31T17:22:12.008Z,74.32
2018-12-31T17:25:02.238Z,74.27
2018-12-31T17:27:51.990Z,74.32
2018-12-31T17:30:41.866Z,74.22
2018-12-31T17:33:33.539Z,74.15
2018-12-31T17:36:23.981Z,74.05
2018-12-31T17:39:14.153Z,74.12
2018-12-31T17:42:09.637Z,73.98
2018-12-31T17:44:56.192Z,73.99
2018-12-31T17:47:46.720Z,73.98
2018-12-31T17:50:37.237Z,73.85
2018-12-31T17:53:26.932Z,74.02
2018-12-31T17:56:16.827Z,74.15
2018-12-31T17:59:06.739Z,74.18
2018-12-31T18:01:56.897Z,74.15
2018-12-31T18:04:47.512Z,74.04
2018-12-31T18:07:37.528Z,73.99
2018-12-31T18:10:27.938Z,73.91
2018-12-31T18:13:18.379Z,73.88
2018-12-31T18:16:08.411Z,73.87
2018-12-31T18:18:58.238Z,73.94
2018-12-31T18:21:47.668Z,73.95
2018-12-31T18:24:37.225Z,73.92
2018-12-31T18:27:26.758Z,73.89
2018-12-31T18:30:16.903Z,73.83
2018-12-31T18:33:06.652Z,73.91
2018-12-31T18:35:56.658Z,73.89
2018-12-31T18:38:46.814Z,73.96
2018-12-31T18:41:36.729Z,73.97
2018-12-31T18:44:26.225Z,73.95
2018-12-31T18:47:16.854Z,73.98
2018-12-31T18:50:09.475Z,74.00
2018-12-31T18:52:59.622Z,74.03
2018-12-31T18:55:50.275Z,74.00
2018-12-31T18:58:40.562Z,74.10
2018-12-31T19:01:30.758Z,73.98
2018-12-31T19:04:20.846Z,74.04
2018-12-31T19:07:11.812Z,74.11
2018-12-31T19:10:01.910Z,74.01
2018-12-31T19:12:51.994Z,74.05
2018-12-31T19:15:42.182Z,73.91
2018-12-31T19:18:32.858Z,73.94
2018-12-31T19:21:22.430Z,73.90
2018-12-31T19:24:13.146Z,73.86
2018-12-31T19:27:03.868Z,73.81
2018-12-31T19:29:54.270Z,73.75
2018-12-31T19:32:44.658Z,73.66
2018-12-31T19:35:35.057Z,73.69
2018-12-31T19:38:25.127Z,73.69
2018-12-31T19:41:15.402Z,73.76
2018-12-31T19:44:05.521Z,73.69
2018-12-31T19:46:55.790Z,73.76
2018-12-31T19:49:45.967Z,73.74
2018-12-31T19:52:36.201Z,73.67
2018-12-31T19:55:26.483Z,73.64
2018-12-31T19:58:16.574Z,73.51
2018-12-31T20:01:06.721Z,73.46
2018-12-31T20:03:57.080Z,73.53
2018-12-31T20:06:47.244Z,73.51
2018-12-31T20:09:37.373Z,73.51
2018-12-31T20:12:27.602Z,73.46
2018-12-31T20:15:17.396Z,73.44
2018-12-31T20:18:08.024Z,73.39
2018-12-31T20:20:57.847Z,73.33
2018-12-31T20:23:47.749Z,73.37
2018-12-31T20:26:37.630Z,73.27
2018-12-31T20:29:27.919Z,73.26
2018-12-31T20:32:17.815Z,73.29
2018-12-31T20:35:07.951Z,73.15
2018-12-31T20:37:57.876Z,73.06
2018-12-31T20:40:47.779Z,73.10
2018-12-31T20:43:38.484Z,73.11
2018-12-31T20:46:28.554Z,73.12
2018-12-31T20:49:19.472Z,73.15
2018-12-31T20:52:09.839Z,73.13
2018-12-31T20:55:00.652Z,73.26
2018-12-31T20:57:50.668Z,73.21
2018-12-31T21:00:41.254Z,73.26
2018-12-31T21:03:31.040Z,73.34
2018-12-31T21:06:21.780Z,73.29
2018-12-31T21:09:12.311Z,73.30
2018-12-31T21:12:02.724Z,73.27
2018-12-31T21:14:52.806Z,73.55
2018-12-31T21:17:43.078Z,73.51
2018-12-31T21:20:33.470Z,73.57
2018-12-31T21:23:23.687Z,73.57
2018-12-31T21:26:13.567Z,73.44
2018-12-31T21:29:03.654Z,73.35
2018-12-31T21:31:53.973Z,73.41
2018-12-31T21:34:43.723Z,73.44
2018-12-31T21:37:33.386Z,73.40
2018-12-31T21:40:23.811Z,73.21
2018-12-31T21:43:13.788Z,73.27
2018-12-31T21:46:03.868Z,73.37
2018-12-31T21:48:54.459Z,73.66
2018-12-31T21:51:44.866Z,73.65
2018-12-31T21:54:34.957Z,73.59
2018-12-31T21:57:24.898Z,73.55
2018-12-31T22:00:14.876Z,73.55
2018-12-31T22:03:05.390Z,73.45
2018-12-31T22:05:55.194Z,73.31
2018-12-31T22:08:45.327Z,73.17
2018-12-31T22:11:35.890Z,73.21
2018-12-31T22:14:26.118Z,73.26
2018-12-31T22:17:16.867Z,73.16
2018-12-31T22:20:08.700Z,72.97
2018-12-31T22:22:58.379Z,72.92
2018-12-31T22:25:48.628Z,72.95
2018-12-31T22:28:38.326Z,72.98
2018-12-31T22:31:28.439Z,73.12
2018-12-31T22:34:18.708Z,73.19
2018-12-31T22:37:08.920Z,73.20
2018-12-31T22:39:58.836Z,73.16
2018-12-31T22:42:49.051Z,73.24
2018-12-31T22:45:39.121Z,73.28
2018-12-31T22:48:29.251Z,73.23
2018-12-31T22:51:18.976Z,73.08
2018-12-31T22:54:08.589Z,73.01
2018-12-31T22:56:58.909Z,72.92
2018-12-31T22:59:49.418Z,72.80
2018-12-31T23:02:39.784Z,72.73
2018-12-31T23:05:32.997Z,72.71
2018-12-31T23:08:23.717Z,72.68
2018-12-31T23:11:13.984Z,72.67
2018-12-31T23:14:03.770Z,72.60
2018-12-31T23:17:04.198Z,72.66
2018-12-31T23:19:54.172Z,72.61
2018-12-31T23:22:44.375Z,72.53
2018-12-31T23:25:35.336Z,72.51
2018-12-31T23:28:25.482Z,72.33
2018-12-31T23:31:15.884Z,72.34
2018-12-31T23:34:05.862Z,72.33
2018-12-31T23:36:56.559Z,72.25
2018-12-31T23:39:46.850Z,72.21
2018-12-31T23:42:37.163Z,72.09
2018-12-31T23:45:27.560Z,72.22
2018-12-31T23:48:18.184Z,72.04
2018-12-31T23:51:07.974Z,72.07
2018-12-31T23:53:58.666Z,72.00
2018-12-31T23:56:48.704Z,71.93
2018-12-31T23:59:39.121Z,72.13
